EDI weather

Edinburgh Airport
Edinburgh, Scotland, United Kingdom

Public forecast

Using degrees Celsius for public forecast. Weather courtesy of forecast.io.

Current aviation weather report (METAR) for Edinburgh Airport

Retrieved 2019/11/14 17:20 UTC (38 minutes ago):

EGPH 141720Z 34005KT CAVOK 03/M01 Q1011

Aviation forecast (TAF) for Edinburgh Airport

Retrieved 2019/11/14 12:00 UTC (6 hours ago):

TAF EGPH 141102Z 1412/1512 02008KT 9999 FEW045